sensor_id;sensor_type;location;lat;lon;timestamp;P1;durP1;ratioP1;P2;durP2;ratioP2
76409;SDS011;65238;42.662;23.280;2023-04-03T00:00:49;3.47;;;1.85;;
76409;SDS011;65238;42.662;23.280;2023-04-03T00:03:15;2.75;;;1.40;;
76409;SDS011;65238;42.662;23.280;2023-04-03T00:05:41;2.60;;;1.35;;
76409;SDS011;65238;42.662;23.280;2023-04-03T00:08:07;4.20;;;1.45;;
76409;SDS011;65238;42.662;23.280;2023-04-03T00:10:34;4.30;;;1.48;;
76409;SDS011;65238;42.662;23.280;2023-04-03T00:13:00;2.85;;;1.48;;
76409;SDS011;65238;42.662;23.280;2023-04-03T00:15:26;4.63;;;1.65;;
76409;SDS011;65238;42.662;23.280;2023-04-03T00:17:51;3.50;;;1.73;;
76409;SDS011;65238;42.662;23.280;2023-04-03T00:20:17;4.20;;;2.13;;
76409;SDS011;65238;42.662;23.280;2023-04-03T00:22:42;5.30;;;2.35;;
76409;SDS011;65238;42.662;23.280;2023-04-03T00:25:08;5.43;;;2.30;;
76409;SDS011;65238;42.662;23.280;2023-04-03T00:27:35;4.03;;;2.30;;
76409;SDS011;65238;42.662;23.280;2023-04-03T00:30:03;4.43;;;2.58;;
76409;SDS011;65238;42.662;23.280;2023-04-03T00:32:28;3.95;;;2.40;;
76409;SDS011;65238;42.662;23.280;2023-04-03T00:34:54;4.80;;;2.78;;
76409;SDS011;65238;42.662;23.280;2023-04-03T00:37:19;5.25;;;2.30;;
76409;SDS011;65238;42.662;23.280;2023-04-03T00:39:45;4.03;;;2.20;;
76409;SDS011;65238;42.662;23.280;2023-04-03T00:42:10;4.93;;;2.38;;
76409;SDS011;65238;42.662;23.280;2023-04-03T00:47:05;3.40;;;1.90;;
76409;SDS011;65238;42.662;23.280;2023-04-03T00:49:32;5.03;;;2.00;;
76409;SDS011;65238;42.662;23.280;2023-04-03T00:51:57;4.28;;;2.15;;
76409;SDS011;65238;42.662;23.280;2023-04-03T00:54:23;4.68;;;2.30;;
76409;SDS011;65238;42.662;23.280;2023-04-03T00:56:50;3.88;;;2.20;;
76409;SDS011;65238;42.662;23.280;2023-04-03T00:59:20;3.47;;;2.17;;
76409;SDS011;65238;42.662;23.280;2023-04-03T01:01:50;6.57;;;2.53;;
76409;SDS011;65238;42.662;23.280;2023-04-03T01:04:29;3.97;;;2.17;;
76409;SDS011;65238;42.662;23.280;2023-04-03T01:06:55;4.72;;;2.35;;
76409;SDS011;65238;42.662;23.280;2023-04-03T01:09:21;3.50;;;2.28;;
76409;SDS011;65238;42.662;23.280;2023-04-03T01:11:47;3.10;;;2.10;;
76409;SDS011;65238;42.662;23.280;2023-04-03T01:14:12;4.43;;;2.55;;
76409;SDS011;65238;42.662;23.280;2023-04-03T01:16:38;3.67;;;2.40;;
76409;SDS011;65238;42.662;23.280;2023-04-03T01:19:05;5.28;;;2.67;;
76409;SDS011;65238;42.662;23.280;2023-04-03T01:26:33;3.92;;;2.58;;
76409;SDS011;65238;42.662;23.280;2023-04-03T01:29:00;3.33;;;1.98;;
76409;SDS011;65238;42.662;23.280;2023-04-03T01:34:01;4.38;;;2.53;;
76409;SDS011;65238;42.662;23.280;2023-04-03T01:36:28;6.18;;;3.10;;
76409;SDS011;65238;42.662;23.280;2023-04-03T01:38:55;8.27;;;2.83;;
76409;SDS011;65238;42.662;23.280;2023-04-03T01:41:21;7.53;;;2.75;;
76409;SDS011;65238;42.662;23.280;2023-04-03T01:43:47;5.32;;;3.10;;
76409;SDS011;65238;42.662;23.280;2023-04-03T01:46:14;5.50;;;3.53;;
76409;SDS011;65238;42.662;23.280;2023-04-03T01:48:40;4.35;;;2.60;;
76409;SDS011;65238;42.662;23.280;2023-04-03T01:51:06;8.30;;;3.70;;
76409;SDS011;65238;42.662;23.280;2023-04-03T01:53:31;5.80;;;3.05;;
76409;SDS011;65238;42.662;23.280;2023-04-03T01:55:57;6.93;;;3.28;;
76409;SDS011;65238;42.662;23.280;2023-04-03T01:58:22;4.95;;;2.60;;
76409;SDS011;65238;42.662;23.280;2023-04-03T02:00:47;6.18;;;2.78;;
76409;SDS011;65238;42.662;23.280;2023-04-03T02:03:13;6.32;;;2.65;;
76409;SDS011;65238;42.662;23.280;2023-04-03T02:05:38;4.13;;;2.10;;
76409;SDS011;65238;42.662;23.280;2023-04-03T02:08:04;4.82;;;2.45;;
76409;SDS011;65238;42.662;23.280;2023-04-03T02:10:29;5.07;;;2.63;;
76409;SDS011;65238;42.662;23.280;2023-04-03T02:12:55;5.70;;;2.17;;
76409;SDS011;65238;42.662;23.280;2023-04-03T02:15:20;3.95;;;2.22;;
76409;SDS011;65238;42.662;23.280;2023-04-03T02:17:46;3.78;;;2.55;;
76409;SDS011;65238;42.662;23.280;2023-04-03T02:20:11;5.35;;;2.72;;
76409;SDS011;65238;42.662;23.280;2023-04-03T02:22:36;4.88;;;2.67;;
76409;SDS011;65238;42.662;23.280;2023-04-03T02:25:02;4.72;;;2.35;;
76409;SDS011;65238;42.662;23.280;2023-04-03T02:27:27;5.15;;;2.47;;
76409;SDS011;65238;42.662;23.280;2023-04-03T02:29:53;4.93;;;2.70;;
76409;SDS011;65238;42.662;23.280;2023-04-03T02:32:18;6.43;;;3.10;;
76409;SDS011;65238;42.662;23.280;2023-04-03T02:34:44;6.50;;;3.17;;
76409;SDS011;65238;42.662;23.280;2023-04-03T02:37:09;6.10;;;3.10;;
76409;SDS011;65238;42.662;23.280;2023-04-03T02:39:35;5.38;;;3.17;;
76409;SDS011;65238;42.662;23.280;2023-04-03T02:42:00;5.53;;;3.05;;
76409;SDS011;65238;42.662;23.280;2023-04-03T02:44:26;5.18;;;3.08;;
76409;SDS011;65238;42.662;23.280;2023-04-03T02:46:51;4.82;;;3.00;;
76409;SDS011;65238;42.662;23.280;2023-04-03T02:49:17;6.38;;;3.10;;
76409;SDS011;65238;42.662;23.280;2023-04-03T02:51:42;5.93;;;2.75;;
76409;SDS011;65238;42.662;23.280;2023-04-03T02:54:08;9.82;;;3.35;;
76409;SDS011;65238;42.662;23.280;2023-04-03T02:56:33;7.20;;;3.50;;
76409;SDS011;65238;42.662;23.280;2023-04-03T02:58:59;8.65;;;3.58;;
76409;SDS011;65238;42.662;23.280;2023-04-03T03:01:24;7.00;;;3.08;;
76409;SDS011;65238;42.662;23.280;2023-04-03T03:03:49;8.30;;;3.17;;
76409;SDS011;65238;42.662;23.280;2023-04-03T03:06:16;6.68;;;3.33;;
76409;SDS011;65238;42.662;23.280;2023-04-03T03:08:42;8.55;;;3.22;;
76409;SDS011;65238;42.662;23.280;2023-04-03T03:11:08;5.57;;;3.38;;
76409;SDS011;65238;42.662;23.280;2023-04-03T03:13:34;7.75;;;3.35;;
76409;SDS011;65238;42.662;23.280;2023-04-03T03:16:00;6.07;;;3.45;;
76409;SDS011;65238;42.662;23.280;2023-04-03T03:18:25;8.43;;;3.88;;
76409;SDS011;65238;42.662;23.280;2023-04-03T03:20:51;9.95;;;3.63;;
76409;SDS011;65238;42.662;23.280;2023-04-03T03:23:17;6.53;;;3.60;;
76409;SDS011;65238;42.662;23.280;2023-04-03T03:25:43;8.43;;;4.40;;
76409;SDS011;65238;42.662;23.280;2023-04-03T03:28:08;7.00;;;3.83;;
76409;SDS011;65238;42.662;23.280;2023-04-03T03:30:34;8.38;;;3.55;;
76409;SDS011;65238;42.662;23.280;2023-04-03T03:33:00;8.68;;;3.90;;
76409;SDS011;65238;42.662;23.280;2023-04-03T03:35:26;5.05;;;3.20;;
76409;SDS011;65238;42.662;23.280;2023-04-03T03:37:51;7.30;;;4.18;;
76409;SDS011;65238;42.662;23.280;2023-04-03T03:40:17;9.55;;;4.25;;
76409;SDS011;65238;42.662;23.280;2023-04-03T03:42:42;11.30;;;4.97;;
76409;SDS011;65238;42.662;23.280;2023-04-03T03:45:08;10.48;;;3.78;;
76409;SDS011;65238;42.662;23.280;2023-04-03T03:47:34;11.38;;;3.67;;
76409;SDS011;65238;42.662;23.280;2023-04-03T03:50:00;13.23;;;4.13;;
76409;SDS011;65238;42.662;23.280;2023-04-03T03:52:26;8.07;;;4.22;;
76409;SDS011;65238;42.662;23.280;2023-04-03T03:54:51;9.20;;;4.10;;
76409;SDS011;65238;42.662;23.280;2023-04-03T03:57:17;7.93;;;4.47;;
76409;SDS011;65238;42.662;23.280;2023-04-03T03:59:42;16.25;;;6.22;;
76409;SDS011;65238;42.662;23.280;2023-04-03T04:02:09;11.15;;;5.18;;
76409;SDS011;65238;42.662;23.280;2023-04-03T04:04:35;12.02;;;4.70;;
76409;SDS011;65238;42.662;23.280;2023-04-03T04:07:01;11.45;;;4.95;;
76409;SDS011;65238;42.662;23.280;2023-04-03T04:09:26;12.07;;;4.53;;
76409;SDS011;65238;42.662;23.280;2023-04-03T04:11:52;13.35;;;4.70;;
76409;SDS011;65238;42.662;23.280;2023-04-03T04:14:18;15.93;;;4.88;;
76409;SDS011;65238;42.662;23.280;2023-04-03T04:16:45;13.55;;;4.50;;
76409;SDS011;65238;42.662;23.280;2023-04-03T04:19:11;13.07;;;5.10;;
76409;SDS011;65238;42.662;23.280;2023-04-03T04:21:36;19.02;;;4.93;;
76409;SDS011;65238;42.662;23.280;2023-04-03T04:24:02;10.38;;;4.47;;
76409;SDS011;65238;42.662;23.280;2023-04-03T04:26:27;16.63;;;5.55;;
76409;SDS011;65238;42.662;23.280;2023-04-03T04:28:53;23.75;;;5.57;;
76409;SDS011;65238;42.662;23.280;2023-04-03T04:31:18;14.00;;;6.20;;
76409;SDS011;65238;42.662;23.280;2023-04-03T04:33:44;15.00;;;7.78;;
76409;SDS011;65238;42.662;23.280;2023-04-03T04:36:09;17.65;;;6.60;;
76409;SDS011;65238;42.662;23.280;2023-04-03T04:38:35;18.02;;;7.00;;
76409;SDS011;65238;42.662;23.280;2023-04-03T04:41:00;22.65;;;7.88;;
76409;SDS011;65238;42.662;23.280;2023-04-03T04:43:26;19.23;;;6.90;;
76409;SDS011;65238;42.662;23.280;2023-04-03T04:46:01;24.35;;;7.53;;
76409;SDS011;65238;42.662;23.280;2023-04-03T04:48:30;21.40;;;7.22;;
76409;SDS011;65238;42.662;23.280;2023-04-03T04:50:56;15.00;;;6.65;;
76409;SDS011;65238;42.662;23.280;2023-04-03T04:53:21;15.65;;;6.32;;
76409;SDS011;65238;42.662;23.280;2023-04-03T04:55:47;18.48;;;7.88;;
76409;SDS011;65238;42.662;23.280;2023-04-03T04:58:12;20.88;;;7.25;;
76409;SDS011;65238;42.662;23.280;2023-04-03T05:00:38;19.67;;;8.77;;
76409;SDS011;65238;42.662;23.280;2023-04-03T05:03:03;23.60;;;9.18;;
76409;SDS011;65238;42.662;23.280;2023-04-03T05:05:29;26.80;;;8.82;;
76409;SDS011;65238;42.662;23.280;2023-04-03T05:07:54;18.92;;;9.40;;
76409;SDS011;65238;42.662;23.280;2023-04-03T05:10:19;18.23;;;8.15;;
76409;SDS011;65238;42.662;23.280;2023-04-03T05:12:45;18.08;;;8.63;;
76409;SDS011;65238;42.662;23.280;2023-04-03T05:15:11;17.20;;;8.20;;
76409;SDS011;65238;42.662;23.280;2023-04-03T05:17:36;16.35;;;8.15;;
76409;SDS011;65238;42.662;23.280;2023-04-03T05:20:02;21.85;;;8.15;;
76409;SDS011;65238;42.662;23.280;2023-04-03T05:22:29;17.45;;;8.15;;
76409;SDS011;65238;42.662;23.280;2023-04-03T05:24:55;17.80;;;8.43;;
76409;SDS011;65238;42.662;23.280;2023-04-03T05:27:20;18.58;;;8.88;;
76409;SDS011;65238;42.662;23.280;2023-04-03T05:29:46;17.77;;;9.65;;
76409;SDS011;65238;42.662;23.280;2023-04-03T05:32:11;22.58;;;9.02;;
76409;SDS011;65238;42.662;23.280;2023-04-03T05:34:36;18.20;;;8.55;;
76409;SDS011;65238;42.662;23.280;2023-04-03T05:37:02;16.85;;;8.43;;
76409;SDS011;65238;42.662;23.280;2023-04-03T05:39:29;16.00;;;7.97;;
76409;SDS011;65238;42.662;23.280;2023-04-03T05:41:55;20.98;;;8.20;;
76409;SDS011;65238;42.662;23.280;2023-04-03T05:44:21;18.15;;;8.52;;
76409;SDS011;65238;42.662;23.280;2023-04-03T05:46:46;16.92;;;8.23;;
76409;SDS011;65238;42.662;23.280;2023-04-03T05:49:12;19.70;;;8.18;;
76409;SDS011;65238;42.662;23.280;2023-04-03T05:51:37;19.67;;;9.73;;
76409;SDS011;65238;42.662;23.280;2023-04-03T05:54:09;15.43;;;8.25;;
76409;SDS011;65238;42.662;23.280;2023-04-03T05:56:38;26.15;;;10.27;;
76409;SDS011;65238;42.662;23.280;2023-04-03T05:59:03;16.42;;;8.43;;
76409;SDS011;65238;42.662;23.280;2023-04-03T06:01:28;25.85;;;10.02;;
76409;SDS011;65238;42.662;23.280;2023-04-03T06:03:54;18.83;;;10.88;;
76409;SDS011;65238;42.662;23.280;2023-04-03T06:06:20;19.52;;;10.15;;
76409;SDS011;65238;42.662;23.280;2023-04-03T06:08:47;26.45;;;9.82;;
76409;SDS011;65238;42.662;23.280;2023-04-03T06:11:12;18.38;;;9.77;;
76409;SDS011;65238;42.662;23.280;2023-04-03T06:13:38;17.75;;;8.55;;
76409;SDS011;65238;42.662;23.280;2023-04-03T06:16:04;18.02;;;9.15;;
76409;SDS011;65238;42.662;23.280;2023-04-03T06:18:30;14.95;;;8.50;;
76409;SDS011;65238;42.662;23.280;2023-04-03T06:20:56;19.80;;;9.80;;
76409;SDS011;65238;42.662;23.280;2023-04-03T06:23:23;25.77;;;10.73;;
76409;SDS011;65238;42.662;23.280;2023-04-03T06:25:48;18.90;;;11.52;;
76409;SDS011;65238;42.662;23.280;2023-04-03T06:28:14;22.35;;;12.32;;
76409;SDS011;65238;42.662;23.280;2023-04-03T06:30:39;26.17;;;11.50;;
76409;SDS011;65238;42.662;23.280;2023-04-03T06:33:04;25.13;;;10.23;;
76409;SDS011;65238;42.662;23.280;2023-04-03T06:35:30;19.02;;;8.77;;
76409;SDS011;65238;42.662;23.280;2023-04-03T06:37:56;18.65;;;8.88;;
76409;SDS011;65238;42.662;23.280;2023-04-03T06:40:22;14.15;;;7.75;;
76409;SDS011;65238;42.662;23.280;2023-04-03T06:42:50;13.70;;;7.57;;
76409;SDS011;65238;42.662;23.280;2023-04-03T06:45:15;16.00;;;8.35;;
76409;SDS011;65238;42.662;23.280;2023-04-03T06:47:41;18.70;;;7.10;;
76409;SDS011;65238;42.662;23.280;2023-04-03T06:50:06;11.30;;;5.90;;
76409;SDS011;65238;42.662;23.280;2023-04-03T06:52:33;11.70;;;6.35;;
76409;SDS011;65238;42.662;23.280;2023-04-03T06:54:59;15.55;;;7.65;;
76409;SDS011;65238;42.662;23.280;2023-04-03T06:57:25;20.83;;;11.05;;
76409;SDS011;65238;42.662;23.280;2023-04-03T06:59:51;19.45;;;10.57;;
76409;SDS011;65238;42.662;23.280;2023-04-03T07:02:17;20.52;;;10.18;;
76409;SDS011;65238;42.662;23.280;2023-04-03T07:04:42;18.08;;;8.95;;
76409;SDS011;65238;42.662;23.280;2023-04-03T07:07:08;13.98;;;8.77;;
76409;SDS011;65238;42.662;23.280;2023-04-03T07:09:33;20.92;;;10.35;;
76409;SDS011;65238;42.662;23.280;2023-04-03T07:11:59;24.55;;;10.32;;
76409;SDS011;65238;42.662;23.280;2023-04-03T07:14:25;18.25;;;9.52;;
76409;SDS011;65238;42.662;23.280;2023-04-03T07:16:50;19.42;;;8.40;;
76409;SDS011;65238;42.662;23.280;2023-04-03T07:19:16;15.23;;;7.30;;
76409;SDS011;65238;42.662;23.280;2023-04-03T07:21:43;13.68;;;6.35;;
76409;SDS011;65238;42.662;23.280;2023-04-03T07:24:09;11.68;;;6.50;;
76409;SDS011;65238;42.662;23.280;2023-04-03T07:26:35;15.82;;;6.60;;
76409;SDS011;65238;42.662;23.280;2023-04-03T07:29:01;12.73;;;6.38;;
76409;SDS011;65238;42.662;23.280;2023-04-03T07:31:26;12.48;;;5.45;;
76409;SDS011;65238;42.662;23.280;2023-04-03T07:33:52;9.82;;;4.38;;
76409;SDS011;65238;42.662;23.280;2023-04-03T07:36:18;15.52;;;5.60;;
76409;SDS011;65238;42.662;23.280;2023-04-03T07:38:45;9.35;;;4.50;;
76409;SDS011;65238;42.662;23.280;2023-04-03T07:41:12;18.20;;;6.03;;
76409;SDS011;65238;42.662;23.280;2023-04-03T07:43:40;11.25;;;4.80;;
76409;SDS011;65238;42.662;23.280;2023-04-03T07:46:06;14.00;;;5.80;;
76409;SDS011;65238;42.662;23.280;2023-04-03T07:48:31;12.70;;;5.25;;
76409;SDS011;65238;42.662;23.280;2023-04-03T07:51:00;11.27;;;4.53;;
76409;SDS011;65238;42.662;23.280;2023-04-03T07:53:26;7.43;;;4.25;;
76409;SDS011;65238;42.662;23.280;2023-04-03T07:55:52;7.70;;;3.90;;
76409;SDS011;65238;42.662;23.280;2023-04-03T07:58:20;8.88;;;4.28;;
76409;SDS011;65238;42.662;23.280;2023-04-03T08:00:46;11.20;;;4.10;;
76409;SDS011;65238;42.662;23.280;2023-04-03T08:03:12;9.55;;;4.15;;
76409;SDS011;65238;42.662;23.280;2023-04-03T08:05:39;5.72;;;3.83;;
76409;SDS011;65238;42.662;23.280;2023-04-03T08:08:09;6.82;;;4.10;;
76409;SDS011;65238;42.662;23.280;2023-04-03T08:10:35;7.00;;;4.00;;
76409;SDS011;65238;42.662;23.280;2023-04-03T08:13:01;8.13;;;3.75;;
76409;SDS011;65238;42.662;23.280;2023-04-03T08:15:27;11.90;;;4.82;;
76409;SDS011;65238;42.662;23.280;2023-04-03T08:17:52;13.35;;;3.97;;
76409;SDS011;65238;42.662;23.280;2023-04-03T08:20:18;5.90;;;3.72;;
76409;SDS011;65238;42.662;23.280;2023-04-03T08:22:44;6.93;;;4.13;;
76409;SDS011;65238;42.662;23.280;2023-04-03T08:25:10;11.38;;;4.13;;
76409;SDS011;65238;42.662;23.280;2023-04-03T08:27:35;8.43;;;4.38;;
76409;SDS011;65238;42.662;23.280;2023-04-03T08:30:01;9.10;;;4.88;;
76409;SDS011;65238;42.662;23.280;2023-04-03T08:32:26;13.57;;;5.85;;
76409;SDS011;65238;42.662;23.280;2023-04-03T08:34:52;12.43;;;5.53;;
76409;SDS011;65238;42.662;23.280;2023-04-03T08:37:17;9.55;;;5.55;;
76409;SDS011;65238;42.662;23.280;2023-04-03T08:39:44;13.80;;;6.57;;
76409;SDS011;65238;42.662;23.280;2023-04-03T08:42:15;17.75;;;7.63;;
76409;SDS011;65238;42.662;23.280;2023-04-03T08:45:02;13.00;;;7.38;;
76409;SDS011;65238;42.662;23.280;2023-04-03T08:50:12;17.33;;;7.28;;
76409;SDS011;65238;42.662;23.280;2023-04-03T08:52:42;18.50;;;8.32;;
76409;SDS011;65238;42.662;23.280;2023-04-03T08:55:30;12.48;;;8.00;;
76409;SDS011;65238;42.662;23.280;2023-04-03T09:00:24;22.75;;;10.65;;
76409;SDS011;65238;42.662;23.280;2023-04-03T09:02:52;19.58;;;9.95;;
76409;SDS011;65238;42.662;23.280;2023-04-03T09:05:20;23.33;;;12.02;;
76409;SDS011;65238;42.662;23.280;2023-04-03T09:07:58;26.98;;;13.43;;
76409;SDS011;65238;42.662;23.280;2023-04-03T09:10:32;23.58;;;12.13;;
76409;SDS011;65238;42.662;23.280;2023-04-03T09:13:22;24.52;;;14.25;;
76409;SDS011;65238;42.662;23.280;2023-04-03T09:16:04;27.88;;;15.00;;
76409;SDS011;65238;42.662;23.280;2023-04-03T09:19:02;31.90;;;15.05;;
76409;SDS011;65238;42.662;23.280;2023-04-03T09:21:38;33.42;;;15.70;;
76409;SDS011;65238;42.662;23.280;2023-04-03T09:24:07;32.75;;;13.10;;
76409;SDS011;65238;42.662;23.280;2023-04-03T09:26:36;26.45;;;9.30;;
76409;SDS011;65238;42.662;23.280;2023-04-03T09:29:05;22.17;;;11.13;;
76409;SDS011;65238;42.662;23.280;2023-04-03T09:31:39;22.20;;;9.63;;
76409;SDS011;65238;42.662;23.280;2023-04-03T09:34:08;18.38;;;8.15;;
76409;SDS011;65238;42.662;23.280;2023-04-03T09:39:14;9.73;;;5.50;;
76409;SDS011;65238;42.662;23.280;2023-04-03T09:42:03;9.75;;;4.28;;
76409;SDS011;65238;42.662;23.280;2023-04-03T09:44:35;8.65;;;3.95;;
76409;SDS011;65238;42.662;23.280;2023-04-03T09:47:19;6.53;;;3.50;;
76409;SDS011;65238;42.662;23.280;2023-04-03T09:49:51;21.90;;;3.72;;
76409;SDS011;65238;42.662;23.280;2023-04-03T09:52:43;7.80;;;2.47;;
76409;SDS011;65238;42.662;23.280;2023-04-03T09:55:43;5.65;;;2.58;;
76409;SDS011;65238;42.662;23.280;2023-04-03T09:58:20;3.75;;;2.50;;
76409;SDS011;65238;42.662;23.280;2023-04-03T10:00:56;3.13;;;2.00;;
76409;SDS011;65238;42.662;23.280;2023-04-03T10:03:24;5.50;;;2.20;;
76409;SDS011;65238;42.662;23.280;2023-04-03T10:05:52;7.47;;;3.40;;
76409;SDS011;65238;42.662;23.280;2023-04-03T10:08:30;2.45;;;1.80;;
76409;SDS011;65238;42.662;23.280;2023-04-03T10:13:32;3.60;;;2.30;;
76409;SDS011;65238;42.662;23.280;2023-04-03T10:16:09;6.20;;;2.40;;
76409;SDS011;65238;42.662;23.280;2023-04-03T10:27:11;3.58;;;1.52;;
76409;SDS011;65238;42.662;23.280;2023-04-03T10:29:50;5.65;;;2.10;;
76409;SDS011;65238;42.662;23.280;2023-04-03T10:41:08;7.85;;;2.00;;
76409;SDS011;65238;42.662;23.280;2023-04-03T10:46:27;5.35;;;2.45;;
76409;SDS011;65238;42.662;23.280;2023-04-03T10:52:20;4.40;;;2.53;;
76409;SDS011;65238;42.662;23.280;2023-04-03T10:57:29;2.55;;;2.00;;
76409;SDS011;65238;42.662;23.280;2023-04-03T11:00:05;4.90;;;2.33;;
76409;SDS011;65238;42.662;23.280;2023-04-03T11:05:31;1.85;;;1.50;;
76409;SDS011;65238;42.662;23.280;2023-04-03T11:08:13;2.45;;;1.77;;
76409;SDS011;65238;42.662;23.280;2023-04-03T11:10:48;9.18;;;1.73;;
76409;SDS011;65238;42.662;23.280;2023-04-03T11:13:19;5.47;;;1.83;;
76409;SDS011;65238;42.662;23.280;2023-04-03T11:15:48;3.03;;;1.80;;
76409;SDS011;65238;42.662;23.280;2023-04-03T11:18:25;5.88;;;2.70;;
76409;SDS011;65238;42.662;23.280;2023-04-03T11:21:02;6.68;;;2.55;;
76409;SDS011;65238;42.662;23.280;2023-04-03T11:23:36;4.57;;;2.70;;
76409;SDS011;65238;42.662;23.280;2023-04-03T11:26:07;4.80;;;2.72;;
76409;SDS011;65238;42.662;23.280;2023-04-03T11:28:35;7.07;;;3.22;;
76409;SDS011;65238;42.662;23.280;2023-04-03T11:36:55;5.13;;;3.20;;
76409;SDS011;65238;42.662;23.280;2023-04-03T11:39:25;6.30;;;3.15;;
76409;SDS011;65238;42.662;23.280;2023-04-03T11:41:53;9.68;;;3.65;;
76409;SDS011;65238;42.662;23.280;2023-04-03T11:44:28;6.22;;;3.88;;
76409;SDS011;65238;42.662;23.280;2023-04-03T11:46:59;5.90;;;3.67;;
76409;SDS011;65238;42.662;23.280;2023-04-03T12:16:04;5.85;;;3.70;;
76409;SDS011;65238;42.662;23.280;2023-04-03T12:18:31;4.82;;;3.40;;
76409;SDS011;65238;42.662;23.280;2023-04-03T12:21:06;10.45;;;4.47;;
76409;SDS011;65238;42.662;23.280;2023-04-03T12:23:33;4.95;;;3.53;;
76409;SDS011;65238;42.662;23.280;2023-04-03T12:26:20;8.05;;;3.47;;
76409;SDS011;65238;42.662;23.280;2023-04-03T12:28:47;7.57;;;4.07;;
76409;SDS011;65238;42.662;23.280;2023-04-03T12:31:13;7.28;;;3.80;;
76409;SDS011;65238;42.662;23.280;2023-04-03T12:37:07;6.25;;;3.75;;
76409;SDS011;65238;42.662;23.280;2023-04-03T12:45:24;4.47;;;4.00;;
76409;SDS011;65238;42.662;23.280;2023-04-03T12:47:54;7.28;;;3.65;;
76409;SDS011;65238;42.662;23.280;2023-04-03T12:50:22;6.43;;;4.57;;
76409;SDS011;65238;42.662;23.280;2023-04-03T12:53:11;8.95;;;4.80;;
76409;SDS011;65238;42.662;23.280;2023-04-03T12:55:46;9.68;;;5.45;;
76409;SDS011;65238;42.662;23.280;2023-04-03T13:00:46;8.85;;;4.32;;
76409;SDS011;65238;42.662;23.280;2023-04-03T13:03:20;11.82;;;5.05;;
76409;SDS011;65238;42.662;23.280;2023-04-03T13:05:47;9.07;;;4.80;;
76409;SDS011;65238;42.662;23.280;2023-04-03T13:08:13;8.25;;;6.10;;
76409;SDS011;65238;42.662;23.280;2023-04-03T13:11:14;6.82;;;4.93;;
76409;SDS011;65238;42.662;23.280;2023-04-03T13:13:35;6.68;;;5.05;;
76409;SDS011;65238;42.662;23.280;2023-04-03T13:16:09;8.10;;;5.40;;
76409;SDS011;65238;42.662;23.280;2023-04-03T13:18:36;8.05;;;5.47;;
76409;SDS011;65238;42.662;23.280;2023-04-03T13:23:31;8.57;;;5.93;;
76409;SDS011;65238;42.662;23.280;2023-04-03T13:25:57;12.38;;;6.32;;
76409;SDS011;65238;42.662;23.280;2023-04-03T13:28:28;10.35;;;5.95;;
76409;SDS011;65238;42.662;23.280;2023-04-03T13:33:29;11.63;;;5.97;;
76409;SDS011;65238;42.662;23.280;2023-04-03T13:36:22;8.07;;;5.57;;
76409;SDS011;65238;42.662;23.280;2023-04-03T13:38:58;8.80;;;5.82;;
76409;SDS011;65238;42.662;23.280;2023-04-03T13:41:35;9.48;;;6.57;;
76409;SDS011;65238;42.662;23.280;2023-04-03T13:47:14;10.75;;;6.70;;
76409;SDS011;65238;42.662;23.280;2023-04-03T13:49:44;11.90;;;6.18;;
76409;SDS011;65238;42.662;23.280;2023-04-03T13:52:27;11.80;;;6.15;;
76409;SDS011;65238;42.662;23.280;2023-04-03T13:55:09;9.20;;;5.78;;
76409;SDS011;65238;42.662;23.280;2023-04-03T14:00:33;14.20;;;6.88;;
76409;SDS011;65238;42.662;23.280;2023-04-03T14:03:16;8.32;;;5.90;;
76409;SDS011;65238;42.662;23.280;2023-04-03T14:05:48;12.75;;;6.07;;
76409;SDS011;65238;42.662;23.280;2023-04-03T14:08:14;8.90;;;4.82;;
76409;SDS011;65238;42.662;23.280;2023-04-03T14:10:41;7.90;;;5.82;;
76409;SDS011;65238;42.662;23.280;2023-04-03T14:13:09;7.28;;;4.97;;
76409;SDS011;65238;42.662;23.280;2023-04-03T14:15:36;9.25;;;4.25;;
76409;SDS011;65238;42.662;23.280;2023-04-03T14:18:02;8.88;;;5.05;;
76409;SDS011;65238;42.662;23.280;2023-04-03T14:20:28;10.45;;;4.70;;
76409;SDS011;65238;42.662;23.280;2023-04-03T14:22:53;4.72;;;3.22;;
76409;SDS011;65238;42.662;23.280;2023-04-03T14:25:19;8.02;;;4.18;;
76409;SDS011;65238;42.662;23.280;2023-04-03T14:27:48;5.55;;;3.42;;
76409;SDS011;65238;42.662;23.280;2023-04-03T14:30:25;5.53;;;3.58;;
76409;SDS011;65238;42.662;23.280;2023-04-03T14:32:52;6.50;;;3.85;;
76409;SDS011;65238;42.662;23.280;2023-04-03T14:35:18;7.50;;;4.95;;
76409;SDS011;65238;42.662;23.280;2023-04-03T14:37:44;6.60;;;3.72;;
76409;SDS011;65238;42.662;23.280;2023-04-03T14:40:18;6.30;;;3.50;;
76409;SDS011;65238;42.662;23.280;2023-04-03T14:42:46;5.85;;;3.65;;
76409;SDS011;65238;42.662;23.280;2023-04-03T14:45:14;7.07;;;3.33;;
76409;SDS011;65238;42.662;23.280;2023-04-03T14:47:50;6.18;;;3.30;;
76409;SDS011;65238;42.662;23.280;2023-04-03T14:50:19;8.82;;;3.50;;
76409;SDS011;65238;42.662;23.280;2023-04-03T14:52:46;5.85;;;3.90;;
76409;SDS011;65238;42.662;23.280;2023-04-03T14:55:14;5.70;;;3.85;;
76409;SDS011;65238;42.662;23.280;2023-04-03T14:57:46;6.93;;;3.80;;
76409;SDS011;65238;42.662;23.280;2023-04-03T15:00:57;3.63;;;2.85;;
76409;SDS011;65238;42.662;23.280;2023-04-03T15:03:22;4.47;;;2.90;;
76409;SDS011;65238;42.662;23.280;2023-04-03T15:05:51;4.85;;;2.92;;
76409;SDS011;65238;42.662;23.280;2023-04-03T15:08:21;3.15;;;2.53;;
76409;SDS011;65238;42.662;23.280;2023-04-03T15:10:49;4.43;;;2.78;;
76409;SDS011;65238;42.662;23.280;2023-04-03T15:13:15;4.38;;;2.92;;
76409;SDS011;65238;42.662;23.280;2023-04-03T15:15:40;4.05;;;3.00;;
76409;SDS011;65238;42.662;23.280;2023-04-03T15:18:06;21.95;;;12.48;;
76409;SDS011;65238;42.662;23.280;2023-04-03T15:20:32;5.88;;;3.47;;
76409;SDS011;65238;42.662;23.280;2023-04-03T15:22:59;4.97;;;3.40;;
76409;SDS011;65238;42.662;23.280;2023-04-03T15:25:29;5.32;;;2.95;;
76409;SDS011;65238;42.662;23.280;2023-04-03T15:27:55;4.40;;;2.95;;
76409;SDS011;65238;42.662;23.280;2023-04-03T15:30:21;4.00;;;3.33;;
76409;SDS011;65238;42.662;23.280;2023-04-03T15:32:47;7.10;;;3.50;;
76409;SDS011;65238;42.662;23.280;2023-04-03T15:35:13;6.22;;;3.33;;
76409;SDS011;65238;42.662;23.280;2023-04-03T15:37:38;7.00;;;4.05;;
76409;SDS011;65238;42.662;23.280;2023-04-03T15:40:04;7.88;;;4.00;;
76409;SDS011;65238;42.662;23.280;2023-04-03T15:42:30;7.03;;;4.28;;
76409;SDS011;65238;42.662;23.280;2023-04-03T15:44:55;6.85;;;4.25;;
76409;SDS011;65238;42.662;23.280;2023-04-03T15:47:21;7.47;;;4.78;;
76409;SDS011;65238;42.662;23.280;2023-04-03T15:49:46;8.85;;;4.80;;
76409;SDS011;65238;42.662;23.280;2023-04-03T15:52:12;7.90;;;4.72;;
76409;SDS011;65238;42.662;23.280;2023-04-03T15:54:37;8.95;;;4.80;;
76409;SDS011;65238;42.662;23.280;2023-04-03T15:57:02;6.90;;;5.22;;
76409;SDS011;65238;42.662;23.280;2023-04-03T15:59:28;7.60;;;5.47;;
76409;SDS011;65238;42.662;23.280;2023-04-03T16:01:55;10.98;;;6.28;;
76409;SDS011;65238;42.662;23.280;2023-04-03T16:04:21;8.05;;;5.30;;
76409;SDS011;65238;42.662;23.280;2023-04-03T16:06:46;6.35;;;4.80;;
76409;SDS011;65238;42.662;23.280;2023-04-03T16:09:12;6.47;;;4.88;;
76409;SDS011;65238;42.662;23.280;2023-04-03T16:11:37;8.70;;;4.47;;
76409;SDS011;65238;42.662;23.280;2023-04-03T16:14:06;6.78;;;4.75;;
76409;SDS011;65238;42.662;23.280;2023-04-03T16:16:32;7.15;;;4.88;;
76409;SDS011;65238;42.662;23.280;2023-04-03T16:18:58;8.70;;;6.18;;